sensor_id;sensor_type;location;lat;lon;timestamp;pressure;altitude;pressure_sealevel;temperature;humidity
11114;BME280;5610;52.154;9.198;2023-04-22T00:02:00;100138.41;;;13.49;84.19
11114;BME280;5610;52.154;9.198;2023-04-22T00:04:47;100147.41;;;13.48;82.70
11114;BME280;5610;52.154;9.198;2023-04-22T00:07:33;100144.59;;;13.60;81.78
11114;BME280;5610;52.154;9.198;2023-04-22T00:10:18;100141.28;;;13.68;79.72
11114;BME280;5610;52.154;9.198;2023-04-22T00:13:04;100137.56;;;13.80;84.60
11114;BME280;5610;52.154;9.198;2023-04-22T00:15:49;100131.69;;;13.86;85.53
11114;BME280;5610;52.154;9.198;2023-04-22T00:18:34;100129.44;;;13.82;89.79
11114;BME280;5610;52.154;9.198;2023-04-22T00:21:21;100127.50;;;13.72;92.31
11114;BME280;5610;52.154;9.198;2023-04-22T00:24:07;100131.06;;;13.62;93.83
11114;BME280;5610;52.154;9.198;2023-04-22T00:26:52;100130.72;;;13.55;96.93
11114;BME280;5610;52.154;9.198;2023-04-22T00:29:37;100127.81;;;13.47;98.31
11114;BME280;5610;52.154;9.198;2023-04-22T00:32:23;100134.41;;;13.43;95.65
11114;BME280;5610;52.154;9.198;2023-04-22T00:35:09;100142.91;;;13.37;95.26
11114;BME280;5610;52.154;9.198;2023-04-22T00:37:55;100140.38;;;13.35;94.18
11114;BME280;5610;52.154;9.198;2023-04-22T00:40:41;100134.16;;;13.35;96.18
11114;BME280;5610;52.154;9.198;2023-04-22T00:43:26;100134.41;;;13.32;96.01
11114;BME280;5610;52.154;9.198;2023-04-22T00:46:11;100135.78;;;13.26;94.37
11114;BME280;5610;52.154;9.198;2023-04-22T00:48:58;100134.94;;;13.26;96.20
11114;BME280;5610;52.154;9.198;2023-04-22T00:51:43;100131.00;;;13.18;98.18
11114;BME280;5610;52.154;9.198;2023-04-22T00:54:31;100129.28;;;13.17;96.23
11114;BME280;5610;52.154;9.198;2023-04-22T00:57:17;100126.03;;;13.14;98.06
11114;BME280;5610;52.154;9.198;2023-04-22T01:00:04;100122.63;;;13.12;100.00
11114;BME280;5610;52.154;9.198;2023-04-22T01:02:49;100122.13;;;13.07;100.00
11114;BME280;5610;52.154;9.198;2023-04-22T01:05:35;100123.47;;;13.01;98.86
11114;BME280;5610;52.154;9.198;2023-04-22T01:08:21;100121.41;;;12.93;99.83
11114;BME280;5610;52.154;9.198;2023-04-22T01:11:10;100120.81;;;12.90;100.00
11114;BME280;5610;52.154;9.198;2023-04-22T01:13:55;100123.13;;;12.83;100.00
11114;BME280;5610;52.154;9.198;2023-04-22T01:16:41;100124.31;;;12.79;100.00
11114;BME280;5610;52.154;9.198;2023-04-22T01:19:27;100119.47;;;12.73;100.00
11114;BME280;5610;52.154;9.198;2023-04-22T01:22:13;100122.88;;;12.64;100.00
11114;BME280;5610;52.154;9.198;2023-04-22T01:24:59;100121.03;;;12.64;100.00
11114;BME280;5610;52.154;9.198;2023-04-22T01:27:45;100120.66;;;12.58;100.00
11114;BME280;5610;52.154;9.198;2023-04-22T01:30:31;100123.81;;;12.52;100.00
11114;BME280;5610;52.154;9.198;2023-04-22T01:33:17;100120.28;;;12.51;100.00
11114;BME280;5610;52.154;9.198;2023-04-22T01:36:02;100113.59;;;12.46;100.00
11114;BME280;5610;52.154;9.198;2023-04-22T01:38:47;100108.03;;;12.49;100.00
11114;BME280;5610;52.154;9.198;2023-04-22T01:41:34;100107.66;;;12.42;100.00
11114;BME280;5610;52.154;9.198;2023-04-22T01:44:19;100114.81;;;12.42;100.00
11114;BME280;5610;52.154;9.198;2023-04-22T01:47:05;100111.66;;;12.36;100.00
11114;BME280;5610;52.154;9.198;2023-04-22T01:49:52;100108.59;;;12.30;100.00
11114;BME280;5610;52.154;9.198;2023-04-22T01:52:37;100111.94;;;12.09;100.00
11114;BME280;5610;52.154;9.198;2023-04-22T01:55:22;100110.88;;;12.23;100.00
11114;BME280;5610;52.154;9.198;2023-04-22T01:58:09;100109.56;;;12.29;100.00
11114;BME280;5610;52.154;9.198;2023-04-22T02:00:54;100109.69;;;12.27;100.00
11114;BME280;5610;52.154;9.198;2023-04-22T02:03:40;100110.69;;;12.26;100.00
11114;BME280;5610;52.154;9.198;2023-04-22T02:06:25;100104.81;;;12.21;100.00
11114;BME280;5610;52.154;9.198;2023-04-22T02:09:11;100104.44;;;12.26;100.00
11114;BME280;5610;52.154;9.198;2023-04-22T02:11:56;100103.84;;;12.22;100.00
11114;BME280;5610;52.154;9.198;2023-04-22T02:14:42;100096.69;;;12.23;100.00
11114;BME280;5610;52.154;9.198;2023-04-22T02:17:27;100104.56;;;12.24;100.00
11114;BME280;5610;52.154;9.198;2023-04-22T02:20:12;100102.38;;;12.18;100.00
11114;BME280;5610;52.154;9.198;2023-04-22T02:22:58;100099.94;;;12.15;100.00
11114;BME280;5610;52.154;9.198;2023-04-22T02:25:47;100103.78;;;12.00;100.00
11114;BME280;5610;52.154;9.198;2023-04-22T02:28:35;100100.28;;;12.10;100.00
11114;BME280;5610;52.154;9.198;2023-04-22T02:31:22;100101.38;;;12.08;100.00
11114;BME280;5610;52.154;9.198;2023-04-22T02:34:07;100105.38;;;12.02;100.00
11114;BME280;5610;52.154;9.198;2023-04-22T02:36:52;100104.00;;;11.97;100.00
11114;BME280;5610;52.154;9.198;2023-04-22T02:39:38;100094.31;;;11.96;100.00
11114;BME280;5610;52.154;9.198;2023-04-22T02:42:24;100090.06;;;11.93;100.00
11114;BME280;5610;52.154;9.198;2023-04-22T02:45:10;100092.34;;;11.87;100.00
11114;BME280;5610;52.154;9.198;2023-04-22T02:47:56;100086.16;;;11.86;100.00
11114;BME280;5610;52.154;9.198;2023-04-22T02:50:41;100088.69;;;11.88;100.00
11114;BME280;5610;52.154;9.198;2023-04-22T02:53:27;100086.28;;;11.96;100.00
11114;BME280;5610;52.154;9.198;2023-04-22T02:56:12;100094.56;;;11.93;100.00
11114;BME280;5610;52.154;9.198;2023-04-22T02:58:57;100087.47;;;11.80;100.00
11114;BME280;5610;52.154;9.198;2023-04-22T03:01:42;100083.88;;;11.93;100.00
11114;BME280;5610;52.154;9.198;2023-04-22T03:04:35;100089.34;;;11.91;100.00
11114;BME280;5610;52.154;9.198;2023-04-22T03:07:20;100095.97;;;11.86;100.00
11114;BME280;5610;52.154;9.198;2023-04-22T03:10:07;100097.91;;;11.60;100.00
11114;BME280;5610;52.154;9.198;2023-04-22T03:12:52;100097.50;;;11.53;100.00
11114;BME280;5610;52.154;9.198;2023-04-22T03:15:38;100087.91;;;11.50;100.00
11114;BME280;5610;52.154;9.198;2023-04-22T03:18:24;100091.75;;;11.46;100.00
11114;BME280;5610;52.154;9.198;2023-04-22T03:21:11;100087.06;;;11.50;100.00
11114;BME280;5610;52.154;9.198;2023-04-22T03:23:58;100087.66;;;11.53;100.00
11114;BME280;5610;52.154;9.198;2023-04-22T03:26:45;100074.00;;;11.58;100.00
11114;BME280;5610;52.154;9.198;2023-04-22T03:29:31;100078.38;;;11.59;100.00
11114;BME280;5610;52.154;9.198;2023-04-22T03:32:16;100082.72;;;11.60;100.00
11114;BME280;5610;52.154;9.198;2023-04-22T03:35:01;100090.63;;;11.62;100.00
11114;BME280;5610;52.154;9.198;2023-04-22T03:37:49;100092.31;;;11.63;100.00
11114;BME280;5610;52.154;9.198;2023-04-22T03:40:39;100086.50;;;11.58;100.00
11114;BME280;5610;52.154;9.198;2023-04-22T03:43:35;100091.56;;;11.49;100.00
11114;BME280;5610;52.154;9.198;2023-04-22T03:46:24;100087.97;;;11.38;100.00
11114;BME280;5610;52.154;9.198;2023-04-22T03:49:18;100089.25;;;11.32;100.00
11114;BME280;5610;52.154;9.198;2023-04-22T03:52:03;100085.97;;;11.28;100.00
11114;BME280;5610;52.154;9.198;2023-04-22T03:54:50;100086.44;;;11.22;100.00
11114;BME280;5610;52.154;9.198;2023-04-22T03:57:35;100099.00;;;11.20;100.00
11114;BME280;5610;52.154;9.198;2023-04-22T04:00:21;100098.25;;;11.18;100.00
11114;BME280;5610;52.154;9.198;2023-04-22T04:03:17;100088.03;;;11.12;100.00
11114;BME280;5610;52.154;9.198;2023-04-22T04:06:06;100091.22;;;11.17;100.00
11114;BME280;5610;52.154;9.198;2023-04-22T04:08:51;100089.66;;;11.15;100.00
11114;BME280;5610;52.154;9.198;2023-04-22T04:11:38;100086.88;;;11.16;100.00
11114;BME280;5610;52.154;9.198;2023-04-22T04:14:25;100087.00;;;11.15;100.00
11114;BME280;5610;52.154;9.198;2023-04-22T04:17:10;100084.81;;;11.20;100.00
11114;BME280;5610;52.154;9.198;2023-04-22T04:19:57;100079.28;;;11.23;100.00
11114;BME280;5610;52.154;9.198;2023-04-22T04:22:43;100083.41;;;11.27;100.00
11114;BME280;5610;52.154;9.198;2023-04-22T04:25:29;100092.91;;;11.31;100.00
11114;BME280;5610;52.154;9.198;2023-04-22T04:28:23;100084.56;;;11.36;100.00
11114;BME280;5610;52.154;9.198;2023-04-22T04:31:10;100078.16;;;11.38;100.00
11114;BME280;5610;52.154;9.198;2023-04-22T04:33:55;100087.16;;;11.48;100.00
11114;BME280;5610;52.154;9.198;2023-04-22T04:36:42;100084.16;;;11.53;100.00
11114;BME280;5610;52.154;9.198;2023-04-22T04:39:36;100083.75;;;11.70;100.00
11114;BME280;5610;52.154;9.198;2023-04-22T04:42:21;100081.38;;;11.78;100.00
11114;BME280;5610;52.154;9.198;2023-04-22T04:45:17;100084.34;;;11.87;100.00
11114;BME280;5610;52.154;9.198;2023-04-22T04:48:04;100077.31;;;11.97;100.00
11114;BME280;5610;52.154;9.198;2023-04-22T04:50:54;100076.50;;;12.07;100.00
11114;BME280;5610;52.154;9.198;2023-04-22T04:53:43;100079.34;;;12.28;100.00
11114;BME280;5610;52.154;9.198;2023-04-22T04:56:29;100077.50;;;12.40;100.00
11114;BME280;5610;52.154;9.198;2023-04-22T04:59:14;100081.31;;;12.49;100.00
11114;BME280;5610;52.154;9.198;2023-04-22T05:02:02;100087.03;;;12.55;100.00
11114;BME280;5610;52.154;9.198;2023-04-22T05:04:47;100083.13;;;12.71;100.00
11114;BME280;5610;52.154;9.198;2023-04-22T05:07:33;100084.47;;;12.87;100.00
11114;BME280;5610;52.154;9.198;2023-04-22T05:10:19;100087.72;;;13.02;100.00
11114;BME280;5610;52.154;9.198;2023-04-22T05:13:05;100083.94;;;13.16;100.00
11114;BME280;5610;52.154;9.198;2023-04-22T05:15:51;100082.47;;;13.34;100.00
11114;BME280;5610;52.154;9.198;2023-04-22T05:18:37;100092.28;;;13.45;100.00
11114;BME280;5610;52.154;9.198;2023-04-22T05:21:25;100082.69;;;13.54;100.00
11114;BME280;5610;52.154;9.198;2023-04-22T05:24:11;100073.38;;;13.69;100.00
11114;BME280;5610;52.154;9.198;2023-04-22T05:26:57;100081.66;;;13.87;100.00
11114;BME280;5610;52.154;9.198;2023-04-22T05:29:43;100078.66;;;14.01;100.00
11114;BME280;5610;52.154;9.198;2023-04-22T05:32:30;100092.88;;;14.13;100.00
11114;BME280;5610;52.154;9.198;2023-04-22T05:35:16;100089.53;;;14.20;100.00
11114;BME280;5610;52.154;9.198;2023-04-22T05:38:02;100094.31;;;14.17;100.00
11114;BME280;5610;52.154;9.198;2023-04-22T05:40:49;100099.97;;;14.23;100.00
11114;BME280;5610;52.154;9.198;2023-04-22T05:43:34;100092.47;;;14.38;100.00
11114;BME280;5610;52.154;9.198;2023-04-22T05:46:25;100091.56;;;14.49;100.00
11114;BME280;5610;52.154;9.198;2023-04-22T05:49:11;100092.28;;;14.51;100.00
11114;BME280;5610;52.154;9.198;2023-04-22T05:52:16;100081.34;;;14.64;100.00
11114;BME280;5610;52.154;9.198;2023-04-22T05:55:34;100086.75;;;14.73;100.00
11114;BME280;5610;52.154;9.198;2023-04-22T05:58:23;100092.25;;;14.72;100.00
11114;BME280;5610;52.154;9.198;2023-04-22T06:01:15;100086.75;;;14.73;100.00
11114;BME280;5610;52.154;9.198;2023-04-22T06:04:10;100076.03;;;14.73;100.00
11114;BME280;5610;52.154;9.198;2023-04-22T06:06:55;100075.16;;;14.73;100.00
11114;BME280;5610;52.154;9.198;2023-04-22T06:09:42;100074.75;;;14.77;100.00
11114;BME280;5610;52.154;9.198;2023-04-22T06:12:27;100084.50;;;14.78;100.00
11114;BME280;5610;52.154;9.198;2023-04-22T06:15:12;100083.13;;;14.84;100.00
11114;BME280;5610;52.154;9.198;2023-04-22T06:17:58;100072.84;;;14.89;100.00
11114;BME280;5610;52.154;9.198;2023-04-22T06:20:43;100074.56;;;15.00;100.00
11114;BME280;5610;52.154;9.198;2023-04-22T06:23:29;100074.06;;;15.16;100.00
11114;BME280;5610;52.154;9.198;2023-04-22T06:26:15;100072.53;;;15.23;100.00
11114;BME280;5610;52.154;9.198;2023-04-22T06:29:01;100082.28;;;15.33;100.00
11114;BME280;5610;52.154;9.198;2023-04-22T06:31:48;100085.41;;;15.48;100.00
11114;BME280;5610;52.154;9.198;2023-04-22T06:34:35;100081.09;;;15.67;100.00
11114;BME280;5610;52.154;9.198;2023-04-22T06:37:21;100070.63;;;15.83;100.00
11114;BME280;5610;52.154;9.198;2023-04-22T06:40:08;100066.09;;;15.93;100.00
11114;BME280;5610;52.154;9.198;2023-04-22T06:43:13;100058.97;;;16.11;100.00
11114;BME280;5610;52.154;9.198;2023-04-22T06:46:18;100059.84;;;16.22;100.00
11114;BME280;5610;52.154;9.198;2023-04-22T06:49:06;100066.31;;;16.19;100.00
11114;BME280;5610;52.154;9.198;2023-04-22T06:52:27;100061.34;;;16.34;100.00
11114;BME280;5610;52.154;9.198;2023-04-22T06:55:15;100067.25;;;16.47;100.00
11114;BME280;5610;52.154;9.198;2023-04-22T06:58:02;100056.16;;;16.60;100.00
11114;BME280;5610;52.154;9.198;2023-04-22T07:00:49;100066.16;;;16.77;100.00
11114;BME280;5610;52.154;9.198;2023-04-22T07:03:34;100058.16;;;16.95;100.00
11114;BME280;5610;52.154;9.198;2023-04-22T07:06:25;100049.00;;;17.15;97.95
11114;BME280;5610;52.154;9.198;2023-04-22T07:09:11;100049.63;;;17.45;97.57
11114;BME280;5610;52.154;9.198;2023-04-22T07:11:56;100055.25;;;17.51;92.06
11114;BME280;5610;52.154;9.198;2023-04-22T07:14:43;100045.75;;;17.75;89.45
11114;BME280;5610;52.154;9.198;2023-04-22T07:17:30;100043.78;;;18.03;89.12
11114;BME280;5610;52.154;9.198;2023-04-22T07:20:16;100042.00;;;18.37;87.78
11114;BME280;5610;52.154;9.198;2023-04-22T07:23:01;100049.63;;;18.42;85.59
11114;BME280;5610;52.154;9.198;2023-04-22T07:25:46;100048.03;;;18.57;83.67
11114;BME280;5610;52.154;9.198;2023-04-22T07:28:31;100044.50;;;18.91;83.07
11114;BME280;5610;52.154;9.198;2023-04-22T07:31:17;100040.69;;;19.10;83.34
11114;BME280;5610;52.154;9.198;2023-04-22T07:34:03;100044.97;;;19.37;79.34
11114;BME280;5610;52.154;9.198;2023-04-22T07:36:49;100034.03;;;19.46;74.42
11114;BME280;5610;52.154;9.198;2023-04-22T07:39:34;100050.44;;;19.53;70.39
11114;BME280;5610;52.154;9.198;2023-04-22T07:42:19;100043.84;;;19.56;70.86
11114;BME280;5610;52.154;9.198;2023-04-22T07:45:05;100045.69;;;19.47;69.33
11114;BME280;5610;52.154;9.198;2023-04-22T07:47:51;100039.16;;;19.74;70.08
11114;BME280;5610;52.154;9.198;2023-04-22T07:50:38;100032.88;;;19.57;68.67
11114;BME280;5610;52.154;9.198;2023-04-22T07:53:23;100040.03;;;19.16;68.99
11114;BME280;5610;52.154;9.198;2023-04-22T07:56:09;100037.66;;;19.05;67.09
11114;BME280;5610;52.154;9.198;2023-04-22T07:58:54;100037.38;;;19.24;69.91
11114;BME280;5610;52.154;9.198;2023-04-22T08:01:40;100034.31;;;19.19;68.79
11114;BME280;5610;52.154;9.198;2023-04-22T08:04:25;100039.31;;;18.98;68.83
11114;BME280;5610;52.154;9.198;2023-04-22T08:07:13;100031.72;;;19.01;69.99
11114;BME280;5610;52.154;9.198;2023-04-22T08:09:58;100026.50;;;19.08;68.33
11114;BME280;5610;52.154;9.198;2023-04-22T08:12:43;100024.56;;;19.34;70.80
11114;BME280;5610;52.154;9.198;2023-04-22T08:15:29;100014.50;;;19.61;68.36
11114;BME280;5610;52.154;9.198;2023-04-22T08:18:14;100017.72;;;19.81;65.52
11114;BME280;5610;52.154;9.198;2023-04-22T08:21:00;100025.47;;;20.16;66.35
11114;BME280;5610;52.154;9.198;2023-04-22T08:23:47;100018.81;;;20.35;65.59
11114;BME280;5610;52.154;9.198;2023-04-22T08:26:33;100018.97;;;20.42;62.90
11114;BME280;5610;52.154;9.198;2023-04-22T08:29:18;100018.09;;;20.57;62.04
11114;BME280;5610;52.154;9.198;2023-04-22T08:32:03;100011.69;;;20.59;61.01
11114;BME280;5610;52.154;9.198;2023-04-22T08:34:49;100014.81;;;20.78;58.99
11114;BME280;5610;52.154;9.198;2023-04-22T08:37:34;100007.66;;;20.94;58.02
11114;BME280;5610;52.154;9.198;2023-04-22T08:40:21;100014.28;;;21.14;56.69
11114;BME280;5610;52.154;9.198;2023-04-22T08:43:06;100005.09;;;21.31;58.41
11114;BME280;5610;52.154;9.198;2023-04-22T08:45:52;99997.75;;;21.63;58.40
11114;BME280;5610;52.154;9.198;2023-04-22T08:48:37;99996.50;;;22.11;57.74
11114;BME280;5610;52.154;9.198;2023-04-22T08:51:24;99993.06;;;22.47;55.87
11114;BME280;5610;52.154;9.198;2023-04-22T08:54:10;99992.88;;;22.63;55.60
11114;BME280;5610;52.154;9.198;2023-04-22T08:56:57;99992.03;;;22.78;54.86
11114;BME280;5610;52.154;9.198;2023-04-22T08:59:43;99980.66;;;23.03;54.56
11114;BME280;5610;52.154;9.198;2023-04-22T09:02:31;99988.72;;;22.82;54.16
11114;BME280;5610;52.154;9.198;2023-04-22T09:05:17;99994.09;;;23.05;54.01
11114;BME280;5610;52.154;9.198;2023-04-22T09:08:03;99991.72;;;23.02;53.75
11114;BME280;5610;52.154;9.198;2023-04-22T09:10:49;99990.47;;;23.19;53.27
11114;BME280;5610;52.154;9.198;2023-04-22T09:13:36;99991.84;;;23.30;52.23
11114;BME280;5610;52.154;9.198;2023-04-22T09:16:24;99981.81;;;23.52;51.90
11114;BME280;5610;52.154;9.198;2023-04-22T09:19:10;99975.81;;;23.56;50.05
11114;BME280;5610;52.154;9.198;2023-04-22T09:21:56;99981.88;;;23.80;48.06
11114;BME280;5610;52.154;9.198;2023-04-22T09:24:43;99976.41;;;24.29;49.59
11114;BME280;5610;52.154;9.198;2023-04-22T09:27:34;99977.72;;;24.68;48.87
11114;BME280;5610;52.154;9.198;2023-04-22T09:30:26;99975.03;;;24.75;48.15
11114;BME280;5610;52.154;9.198;2023-04-22T09:33:12;99973.91;;;25.04;48.72
11114;BME280;5610;52.154;9.198;2023-04-22T09:35:57;99972.28;;;25.36;47.21
11114;BME280;5610;52.154;9.198;2023-04-22T09:39:01;99968.34;;;25.71;46.20
11114;BME280;5610;52.154;9.198;2023-04-22T09:41:53;99974.06;;;25.96;45.09
11114;BME280;5610;52.154;9.198;2023-04-22T09:44:39;99971.91;;;26.32;43.57
11114;BME280;5610;52.154;9.198;2023-04-22T09:47:34;99961.81;;;26.52;43.71
11114;BME280;5610;52.154;9.198;2023-04-22T09:50:20;99962.22;;;26.49;44.66
11114;BME280;5610;52.154;9.198;2023-04-22T09:53:06;99959.34;;;26.95;42.34
11114;BME280;5610;52.154;9.198;2023-04-22T09:55:53;99953.22;;;27.06;43.35
11114;BME280;5610;52.154;9.198;2023-04-22T09:58:39;99949.09;;;27.54;41.66
11114;BME280;5610;52.154;9.198;2023-04-22T10:01:34;99946.25;;;27.99;41.77
11114;BME280;5610;52.154;9.198;2023-04-22T10:04:21;99941.06;;;28.52;41.46
11114;BME280;5610;52.154;9.198;2023-04-22T10:07:08;99937.50;;;28.70;41.59
11114;BME280;5610;52.154;9.198;2023-04-22T10:09:53;99928.56;;;28.93;40.96
11114;BME280;5610;52.154;9.198;2023-04-22T10:12:39;99927.22;;;28.65;40.31
11114;BME280;5610;52.154;9.198;2023-04-22T10:15:25;99928.22;;;29.31;39.33
11114;BME280;5610;52.154;9.198;2023-04-22T10:18:13;99920.97;;;28.40;38.04
11114;BME280;5610;52.154;9.198;2023-04-22T10:21:02;99917.91;;;28.66;39.11
11114;BME280;5610;52.154;9.198;2023-04-22T10:23:47;99922.34;;;29.58;37.52
11114;BME280;5610;52.154;9.198;2023-04-22T10:26:41;99923.75;;;28.15;38.28
11114;BME280;5610;52.154;9.198;2023-04-22T10:29:34;99921.72;;;27.85;38.74
11114;BME280;5610;52.154;9.198;2023-04-22T10:32:25;99910.44;;;28.73;37.31
11114;BME280;5610;52.154;9.198;2023-04-22T10:35:12;99907.88;;;28.60;37.59
11114;BME280;5610;52.154;9.198;2023-04-22T10:37:58;99892.88;;;30.23;36.46
11114;BME280;5610;52.154;9.198;2023-04-22T10:40:57;99896.81;;;30.39;34.42
11114;BME280;5610;52.154;9.198;2023-04-22T10:43:44;99907.88;;;30.68;34.36
11114;BME280;5610;52.154;9.198;2023-04-22T10:46:57;99903.28;;;30.85;33.86
11114;BME280;5610;52.154;9.198;2023-04-22T10:49:42;99898.22;;;32.23;32.87
11114;BME280;5610;52.154;9.198;2023-04-22T10:52:28;99905.19;;;31.75;32.77
11114;BME280;5610;52.154;9.198;2023-04-22T10:55:14;99886.72;;;32.31;32.25
11114;BME280;5610;52.154;9.198;2023-04-22T10:58:00;99884.78;;;32.92;30.81
11114;BME280;5610;52.154;9.198;2023-04-22T11:00:45;99884.66;;;33.09;31.38
11114;BME280;5610;52.154;9.198;2023-04-22T11:03:36;99876.28;;;33.95;31.07
11114;BME280;5610;52.154;9.198;2023-04-22T11:06:21;99862.66;;;34.26;30.99
11114;BME280;5610;52.154;9.198;2023-04-22T11:09:10;99861.25;;;36.18;28.28
11114;BME280;5610;52.154;9.198;2023-04-22T11:15:17;99860.53;;;36.62;28.20
11114;BME280;5610;52.154;9.198;2023-04-22T11:18:07;99847.22;;;35.48;29.57
11114;BME280;5610;52.154;9.198;2023-04-22T11:20:53;99833.34;;;35.43;29.01
11114;BME280;5610;52.154;9.198;2023-04-22T11:23:38;99850.66;;;33.68;30.25
11114;BME280;5610;52.154;9.198;2023-04-22T11:26:34;99842.22;;;33.89;30.97
11114;BME280;5610;52.154;9.198;2023-04-22T11:29:20;99842.75;;;33.44;30.22
11114;BME280;5610;52.154;9.198;2023-04-22T11:32:08;99835.47;;;33.01;30.47
11114;BME280;5610;52.154;9.198;2023-04-22T11:34:54;99827.03;;;33.45;31.53
11114;BME280;5610;52.154;9.198;2023-04-22T11:37:41;99837.59;;;32.94;31.56
11114;BME280;5610;52.154;9.198;2023-04-22T11:40:29;99827.88;;;32.20;31.94
11114;BME280;5610;52.154;9.198;2023-04-22T11:43:14;99826.47;;;30.95;33.39
11114;BME280;5610;52.154;9.198;2023-04-22T11:46:01;99823.19;;;30.98;34.03
11114;BME280;5610;52.154;9.198;2023-04-22T11:48:49;99836.50;;;30.61;34.03
11114;BME280;5610;52.154;9.198;2023-04-22T11:51:34;99828.06;;;30.11;34.44
11114;BME280;5610;52.154;9.198;2023-04-22T11:54:29;99830.66;;;30.05;35.32
11114;BME280;5610;52.154;9.198;2023-04-22T11:57:15;99826.84;;;29.95;35.01
11114;BME280;5610;52.154;9.198;2023-04-22T12:00:01;99810.94;;;31.73;32.89
11114;BME280;5610;52.154;9.198;2023-04-22T12:02:59;99817.22;;;34.06;30.98
11114;BME280;5610;52.154;9.198;2023-04-22T12:05:50;99807.00;;;34.95;28.84
11114;BME280;5610;52.154;9.198;2023-04-22T12:08:38;99805.63;;;35.64;28.61
11114;BME280;5610;52.154;9.198;2023-04-22T12:11:26;99809.97;;;36.11;28.84
11114;BME280;5610;52.154;9.198;2023-04-22T12:14:12;99800.06;;;35.74;27.78
11114;BME280;5610;52.154;9.198;2023-04-22T12:16:57;99810.41;;;34.29;28.96
11114;BME280;5610;52.154;9.198;2023-04-22T12:19:45;99808.97;;;32.29;31.91
11114;BME280;5610;52.154;9.198;2023-04-22T12:22:32;99808.41;;;35.08;29.06
11114;BME280;5610;52.154;9.198;2023-04-22T12:25:17;99799.03;;;37.57;27.70
11114;BME280;5610;52.154;9.198;2023-04-22T12:28:03;99806.50;;;36.94;27.18
11114;BME280;5610;52.154;9.198;2023-04-22T12:30:48;99805.94;;;35.32;28.00
11114;BME280;5610;52.154;9.198;2023-04-22T12:33:34;99785.69;;;35.62;28.41
11114;BME280;5610;52.154;9.198;2023-04-22T12:36:20;99787.69;;;36.31;27.53
11114;BME280;5610;52.154;9.198;2023-04-22T12:39:06;99786.41;;;37.94;26.59
11114;BME280;5610;52.154;9.198;2023-04-22T12:41:53;99774.63;;;39.94;25.29
11114;BME280;5610;52.154;9.198;2023-04-22T12:44:38;99783.53;;;37.75;26.75
11114;BME280;5610;52.154;9.198;2023-04-22T12:47:24;99777.66;;;36.84;27.08
11114;BME280;5610;52.154;9.198;2023-04-22T12:50:10;99764.66;;;35.20;29.07
11114;BME280;5610;52.154;9.198;2023-04-22T12:52:55;99777.41;;;35.26;29.07
11114;BME280;5610;52.154;9.198;2023-04-22T12:55:42;99773.50;;;35.37;29.07
11114;BME280;5610;52.154;9.198;2023-04-22T12:58:27;99756.34;;;36.80;27.36
11114;BME280;5610;52.154;9.198;2023-04-22T13:01:12;99773.78;;;37.20;26.16
11114;BME280;5610;52.154;9.198;2023-04-22T13:03:57;99787.59;;;35.82;27.22
11114;BME280;5610;52.154;9.198;2023-04-22T13:06:42;99782.38;;;35.60;27.39
11114;BME280;5610;52.154;9.198;2023-04-22T13:09:28;99769.31;;;36.84;25.48
11114;BME280;5610;52.154;9.198;2023-04-22T13:12:14;99750.91;;;39.04;24.64
11114;BME280;5610;52.154;9.198;2023-04-22T13:15:00;99748.50;;;41.66;22.96
11114;BME280;5610;52.154;9.198;2023-04-22T13:17:45;99738.34;;;44.91;21.30
11114;BME280;5610;52.154;9.198;2023-04-22T13:20:30;99730.97;;;45.89;20.92
11114;BME280;5610;52.154;9.198;2023-04-22T13:23:15;99753.69;;;44.93;20.59
11114;BME280;5610;52.154;9.198;2023-04-22T13:26:02;99740.69;;;41.23;22.43
11114;BME280;5610;52.154;9.198;2023-04-22T13:28:49;99736.19;;;41.13;22.69
11114;BME280;5610;52.154;9.198;2023-04-22T13:31:34;99727.66;;;40.38;22.73
11114;BME280;5610;52.154;9.198;2023-04-22T13:34:20;99710.22;;;40.46;23.15
11114;BME280;5610;52.154;9.198;2023-04-22T13:37:05;99714.41;;;39.79;23.87
11114;BME280;5610;52.154;9.198;2023-04-22T13:39:51;99737.72;;;33.76;27.59
11114;BME280;5610;52.154;9.198;2023-04-22T13:42:36;99729.06;;;30.79;30.68
11114;BME280;5610;52.154;9.198;2023-04-22T13:45:23;99718.47;;;29.39;32.33
11114;BME280;5610;52.154;9.198;2023-04-22T13:48:09;99728.22;;;28.34;33.92
11114;BME280;5610;52.154;9.198;2023-04-22T13:50:54;99725.28;;;28.48;34.22
11114;BME280;5610;52.154;9.198;2023-04-22T13:53:39;99713.50;;;28.59;34.45
11114;BME280;5610;52.154;9.198;2023-04-22T13:56:24;99726.00;;;29.43;33.97
11114;BME280;5610;52.154;9.198;2023-04-22T13:59:10;99707.31;;;30.32;31.82
11114;BME280;5610;52.154;9.198;2023-04-22T14:01:56;99707.47;;;32.26;31.11
11114;BME280;5610;52.154;9.198;2023-04-22T14:04:41;99710.69;;;36.08;27.78
11114;BME280;5610;52.154;9.198;2023-04-22T14:07:27;99699.28;;;38.41;24.79
11114;BME280;5610;52.154;9.198;2023-04-22T14:10:13;99708.38;;;37.37;24.55
11114;BME280;5610;52.154;9.198;2023-04-22T14:13:00;99707.56;;;38.28;25.31
11114;BME280;5610;52.154;9.198;2023-04-22T14:15:46;99687.09;;;36.60;25.82
11114;BME280;5610;52.154;9.198;2023-04-22T14:18:35;99689.22;;;35.69;26.60
11114;BME280;5610;52.154;9.198;2023-04-22T14:21:21;99679.09;;;36.53;25.04
11114;BME280;5610;52.154;9.198;2023-04-22T14:24:06;99684.34;;;36.10;26.07
11114;BME280;5610;52.154;9.198;2023-04-22T14:26:52;99668.97;;;38.40;24.32
11114;BME280;5610;52.154;9.198;2023-04-22T14:29:37;99677.94;;;37.51;25.06
11114;BME280;5610;52.154;9.198;2023-04-22T14:32:23;99670.16;;;35.52;26.32
11114;BME280;5610;52.154;9.198;2023-04-22T14:35:09;99668.84;;;36.88;25.65
11114;BME280;5610;52.154;9.198;2023-04-22T14:37:55;99689.63;;;32.88;29.29
11114;BME280;5610;52.154;9.198;2023-04-22T14:40:40;99677.94;;;31.94;30.32
11114;BME280;5610;52.154;9.198;2023-04-22T14:43:25;99667.25;;;30.36;31.96
11114;BME280;5610;52.154;9.198;2023-04-22T14:46:11;99669.97;;;28.39;33.13
11114;BME280;5610;52.154;9.198;2023-04-22T14:48:56;99656.69;;;27.76;35.03